Главная страница
METAR-TAF:

METAR-TAF

Аэропорты :

Понсе, Пуэрто-Рико, США

широта: 18-01N, долгота: 066-34W, высота над уровнем моря: 8 м

METAR: отсутствует

Время: 14:53 (18:53 UTC)

Прогноз

Эта сводка был подготовлена 1 час и 33 минут назад, в 17:20 UTC
Прогноз действительный с 12-го 18 UTC до 13-го 18 UTC
Ветер 10 Узел от юго-юго-восточный
Видимость: 10 км
небольшая облачность на высоте 2500 фута
Отдельные облака на высоте 5000 фута
ливни в окрестностях
С 12-го 2300 UTC
Ветер 5 Узел от восточный
Видимость: 10 км
небольшая облачность на высоте 3000 фута
С 13-го 1400 UTC
Ветер 10 Узел от юго-восточный с порывами до 18 Узел
Видимость: 10 км
небольшая облачность на высоте 3000 фута
Отдельные облака на высоте 6000 фута

TAF: TJPS 121720Z 1218/1318 16010KT P6SM VCSH FEW025 SCT050 FM122300 08005KT P6SM FEW030 FM131400 13010G18KT P6SM FEW030 SCT060

Метеонаблюдения и прогнозы для более 4000 аэропортов (сводки METAR и TAF).

Имеющиеся станции представлены на карте желтыми и красными точками.

Чтобы увидеть название станции, наведите на нее мышь.

Затем щелкните, чтобы увидеть метеонаблюдения и метеопрогнозы.

Управление картой: чтобы увеличить масштаб, щелкните зеленые кнопки с черным крестиком; чтобы уменьшить масштаб, щелкните зеленую кнопку с тире; для просмотра соседних карт щелкайте зеленые стрелки.


METAR-TAF: